Gainesboro, TN

8:08 PM CST on December 26, 2014 (GMT -0600)
APRSWXNET Cookeville TN US | Change Station
CLOSE
Current Station
Personal Weather Station
Location: Cookeville, TN
Elevation: 1000 ft
Nearby Weather Stations

Elev 1000 ft 36.25 °N, 85.50 °W | Updated 46 minutes ago

Partly Cloudy
Partly Cloudy
46 °F
Feels Like 46 °F
N
0
Wind Variable Wind from SE
Gusts 4.0 mph

Today
High -- | Low -- °F
--% Chance of Precip.
Yesterday
High -- | Low -- °F
Precip. -- in
6:52 AM 4:34 PM
Waxing Crescent, 31% visible
Pressure 30.23 in
Visibility 10.0 miles
Clouds Clear
Windchill 46 °F
Dew Point 39 °F
Humidity 76%
Rainfall 0.00 in
Snow Depth Not available.
UV 0 out of 12
Pollen .10 out of 12
Air Quality Not available.
Flu Activity Not available.
METAR KSRB 270155Z AUTO 18006KT 10SM CLR 08/03 A3023 RMK

More Conditions Fewer Conditions

Pressure 30.23 in
Visibility 10.0 miles
Clouds Clear
Windchill 46 °F
Dew Point 39 °F
Humidity 76%
Rainfall 0.00 in
Snow Depth Not available.
UV 0 out of 12
Pollen .10 out of 12
Air Quality Not available.
Flu Activity Not available.
METAR KSRB 270155Z AUTO 18006KT 10SM CLR 08/03 A3023 RMK

More Conditions Fewer Conditions

10-Day Weather Forecast

Almanac

Astronomy

Dec. 26, 2014 Rise Set
Actual Time
Civil Twilight
Nautical Twilight
Astronomical Twilight
Moon
Length of Visible Light
Length of Day
Tomorrow will be .
, % of the Moon is Illuminated

Today's Extremes

State Highs State Lows

Community

WunderPhotos

Upload Photos

1,780,807 photos uploaded!

WunderBlogs® & News

Nearby

Air Quality

  Air Quality AQ Index Pollutant
Not available.

Snow Depth

Station Depth Elevation

Earthquake Activity

City Distance Mag. Time & Date
Minimum magnitude displayed is 2.5.

Coastal Water Temperatures

Place Temperature

Nearby Weather Stations